Time;durP1;ratioP1;P1;durP2;ratioP2;P2;SDS_P1;SDS_P2;PMS_P1;PMS_P2;Temp;Humidity;BMP_temperature;BMP_pressure;BME280_temperature;BME280_humidity;BME280_pressure;Samples;Min_cycle;Max_cycle;Signal;HPM_P1;HPM_P2
2022/12/23 00:01:39;;;;;;;41.33;14.10;;;;;;;1.86;100.00;97907.16;5180238;27;20050;-63
2022/12/23 00:04:05;;;;;;;38.47;13.95;;;;;;;1.97;100.00;97905.59;5180334;27;20201;-66
2022/12/23 00:06:32;;;;;;;52.47;15.43;;;;;;;1.98;100.00;97920.69;5180362;27;20137;-62
2022/12/23 00:08:58;;;;;;;41.58;17.10;;;;;;;1.87;100.00;97917.66;5180162;27;20137;-65
2022/12/23 00:11:26;;;;;;;75.65;15.15;;;;;;;1.77;100.00;97910.00;5180133;27;20064;-63
2022/12/23 00:16:37;;;;;;;30.98;14.15;;;;;;;2.19;100.00;97893.53;5180376;27;20494;-64
2022/12/23 00:19:04;;;;;;;28.45;12.98;;;;;;;1.95;100.00;97893.56;5180015;27;20260;-66
2022/12/23 00:21:30;;;;;;;33.08;14.05;;;;;;;2.08;100.00;97884.31;5180185;27;20057;-66
2022/12/23 00:23:56;;;;;;;61.97;14.88;;;;;;;2.16;100.00;97885.31;5179041;27;20078;-65
2022/12/23 00:26:24;;;;;;;35.03;13.25;;;;;;;2.09;100.00;97883.16;5179567;27;20437;-64
2022/12/23 00:28:50;;;;;;;42.28;13.98;;;;;;;2.10;100.00;97882.06;5179977;27;20130;-63
2022/12/23 00:31:18;;;;;;;39.17;14.80;;;;;;;2.09;100.00;97880.47;5179833;27;20065;-64
2022/12/23 00:33:46;;;;;;;37.70;13.90;;;;;;;1.98;100.00;97866.63;5179700;27;20141;-63
2022/12/23 00:36:16;;;;;;;36.33;13.98;;;;;;;2.01;100.00;97863.25;5179827;27;20384;-63
2022/12/23 00:44:11;;;;;;;26.90;13.13;;;;;;;2.05;100.00;97823.59;5180048;27;20075;-66
2022/12/23 00:46:38;;;;;;;50.35;15.10;;;;;;;2.02;100.00;97815.38;5179402;27;20054;-62
2022/12/23 00:51:49;;;;;;;54.13;15.27;;;;;;;1.95;100.00;97798.97;5179621;27;20429;-66
2022/12/23 00:54:16;;;;;;;36.40;15.85;;;;;;;2.10;100.00;97793.63;5179450;27;20073;-66
2022/12/23 00:56:42;;;;;;;35.17;15.05;;;;;;;2.19;100.00;97790.78;5179660;27;20077;-63
2022/12/23 00:59:08;;;;;;;44.58;14.77;;;;;;;1.85;100.00;97787.47;5179340;27;20054;-65
2022/12/23 01:07:05;;;;;;;34.25;16.00;;;;;;;1.97;100.00;97772.38;5179191;27;20057;-62
2022/12/23 01:09:31;;;;;;;39.63;15.18;;;;;;;2.04;100.00;97765.25;5179141;27;20056;-63
2022/12/23 01:11:57;;;;;;;33.45;15.27;;;;;;;1.99;100.00;97767.41;5179248;27;20068;-64
2022/12/23 01:14:24;;;;;;;32.15;15.00;;;;;;;2.01;100.00;97770.56;5179146;27;20450;-64
2022/12/23 01:16:50;;;;;;;32.97;14.40;;;;;;;2.05;100.00;97758.72;5179165;27;20104;-62
2022/12/23 01:19:16;;;;;;;38.42;14.55;;;;;;;2.02;100.00;97767.50;5179245;27;20056;-64
2022/12/23 01:21:43;;;;;;;37.35;16.05;;;;;;;2.10;100.00;97760.41;5178942;27;20133;-64
2022/12/23 01:24:09;;;;;;;55.80;16.70;;;;;;;1.96;100.00;97757.28;5179244;27;20213;-66
2022/12/23 01:26:36;;;;;;;40.22;17.10;;;;;;;2.08;100.00;97752.63;5178856;27;20054;-63
2022/12/23 01:29:02;;;;;;;38.75;16.92;;;;;;;2.13;100.00;97754.28;5179333;27;20042;-66
2022/12/23 01:31:28;;;;;;;35.83;15.82;;;;;;;2.05;100.00;97769.53;5178747;27;20073;-64
2022/12/23 01:33:55;;;;;;;37.88;16.77;;;;;;;2.13;100.00;97781.31;5178980;27;20348;-62
2022/12/23 01:36:22;;;;;;;34.95;15.98;;;;;;;2.11;100.00;97775.50;5181091;27;20125;-62
2022/12/23 01:38:49;;;;;;;39.75;17.40;;;;;;;2.19;100.00;97779.19;5182666;27;20057;-65
2022/12/23 01:43:59;;;;;;;35.53;15.77;;;;;;;2.00;100.00;97782.47;5181389;27;20038;-66
2022/12/23 01:46:25;;;;;;;34.47;15.77;;;;;;;2.04;100.00;97783.41;5182767;27;20072;-62
2022/12/23 01:48:52;;;;;;;34.97;14.93;;;;;;;2.25;100.00;97765.06;5182393;27;20061;-66
2022/12/23 01:51:24;;;;;;;43.03;16.70;;;;;;;2.20;100.00;97776.16;5182685;27;20056;-65
2022/12/23 01:53:57;;;;;;;35.58;15.30;;;;;;;2.04;100.00;97776.06;5182248;27;20128;-62
2022/12/23 01:56:26;;;;;;;28.50;12.50;;;;;;;1.95;100.00;97775.41;5182604;27;20374;-62
2022/12/23 01:58:56;;;;;;;34.58;14.95;;;;;;;2.07;100.00;97766.50;5182424;27;20089;-65
2022/12/23 02:04:13;;;;;;;27.55;13.35;;;;;;;1.92;100.00;97769.91;5182416;27;20049;-62
2022/12/23 02:09:28;;;;;;;32.30;14.77;;;;;;;2.02;100.00;97775.63;5182538;27;20045;-64
2022/12/23 02:12:20;;;;;;;36.63;15.00;;;;;;;1.88;100.00;97767.88;5181960;27;20442;-63
2022/12/23 02:18:06;;;;;;;31.23;13.38;;;;;;;1.81;100.00;97758.78;5182280;27;20231;-66
2022/12/23 02:21:09;;;;;;;34.30;15.63;;;;;;;1.88;100.00;97748.97;5181705;27;20061;-66
2022/12/23 02:24:03;;;;;;;35.53;15.27;;;;;;;2.20;100.00;97740.19;5181732;27;20141;-64
2022/12/23 02:26:55;;;;;;;33.38;14.70;;;;;;;1.93;100.00;97734.41;5181849;27;20068;-64
2022/12/23 02:29:50;;;;;;;39.47;15.02;;;;;;;1.95;100.00;97732.16;5181646;27;20046;-67
2022/12/23 02:32:19;;;;;;;;;;;;;;;1.83;100.00;97737.59;5182443;27;20055;-62
2022/12/23 02:34:52;;;;;;;37.13;14.73;;;;;;;1.73;100.00;97738.84;5181525;27;19923;-64
2022/12/23 02:37:27;;;;;;;34.78;15.63;;;;;;;1.78;100.00;97724.34;5181745;27;20058;-63
2022/12/23 02:39:58;;;;;;;42.80;17.35;;;;;;;1.85;100.00;97728.03;5181776;27;20057;-64
2022/12/23 02:42:34;;;;;;;39.53;16.13;;;;;;;1.81;100.00;97729.84;5181415;27;20050;-62
2022/12/23 02:45:07;;;;;;;38.95;16.50;;;;;;;1.82;100.00;97727.94;5181766;27;20468;-65
2022/12/23 02:47:39;;;;;;;39.88;16.65;;;;;;;1.85;100.00;97725.31;5180611;27;20046;-64
2022/12/23 02:50:13;;;;;;;40.88;17.45;;;;;;;1.84;100.00;97725.69;5181816;27;20327;-66
2022/12/23 02:52:44;;;;;;;40.50;16.48;;;;;;;1.68;100.00;97712.09;5181227;27;20426;-67
2022/12/23 02:55:13;;;;;;;33.83;14.48;;;;;;;1.68;100.00;97724.81;5181161;27;20042;-62
2022/12/23 02:57:44;;;;;;;40.50;16.88;;;;;;;1.78;100.00;97725.13;5181273;27;20409;-63
2022/12/23 03:00:12;;;;;;;38.15;15.05;;;;;;;1.79;100.00;97720.50;5181046;27;20092;-67
2022/12/23 03:02:41;;;;;;;35.13;15.73;;;;;;;1.88;100.00;97710.34;5181453;27;20315;-65
2022/12/23 03:05:23;;;;;;;37.63;15.15;;;;;;;1.86;100.00;97713.38;5181051;27;20062;-62
2022/12/23 03:07:52;;;;;;;29.63;13.13;;;;;;;1.76;100.00;97715.78;5181531;27;20321;-61
2022/12/23 03:10:27;;;;;;;36.45;14.85;;;;;;;1.74;100.00;97713.44;5180984;27;20092;-63
2022/12/23 03:13:00;;;;;;;38.25;15.82;;;;;;;1.76;100.00;97708.47;5181406;27;20050;-66
2022/12/23 03:15:35;;;;;;;41.00;16.75;;;;;;;1.71;100.00;97703.31;5180977;27;20054;-62
2022/12/23 03:18:10;;;;;;;38.97;15.40;;;;;;;1.81;100.00;97702.81;5181000;27;20304;-64
2022/12/23 03:20:44;;;;;;;33.08;15.07;;;;;;;1.81;100.00;97704.75;5181098;27;20050;-62
2022/12/23 03:23:21;;;;;;;29.05;12.60;;;;;;;1.77;100.00;97703.88;5180956;27;20046;-63
2022/12/23 03:25:57;;;;;;;33.47;14.75;;;;;;;1.74;100.00;97696.44;5180663;27;20137;-65
2022/12/23 03:28:28;;;;;;;37.03;16.23;;;;;;;1.75;100.00;97701.50;5180705;27;20331;-64
2022/12/23 03:30:58;;;;;;;28.13;12.60;;;;;;;1.74;100.00;97702.63;5181126;27;20098;-65
2022/12/23 03:33:29;;;;;;;35.75;14.02;;;;;;;1.78;100.00;97703.50;5180806;27;20042;-63
2022/12/23 03:36:03;;;;;;;33.30;14.88;;;;;;;1.77;100.00;97698.47;5180573;27;20411;-66
2022/12/23 03:38:32;;;;;;;33.97;13.65;;;;;;;1.70;100.00;97682.84;5180905;27;20333;-63
2022/12/23 03:41:05;;;;;;;28.83;14.32;;;;;;;1.72;100.00;97690.59;5180529;27;20073;-66
2022/12/23 03:43:36;;;;;;;34.90;14.35;;;;;;;1.74;100.00;97691.81;5180880;27;20043;-66
2022/12/23 03:46:09;;;;;;;37.15;15.82;;;;;;;1.72;100.00;97682.47;5180342;27;20434;-63
2022/12/23 03:48:40;;;;;;;37.80;14.95;;;;;;;1.77;100.00;97688.44;5180890;27;20133;-67
2022/12/23 03:51:12;;;;;;;34.50;15.43;;;;;;;1.66;100.00;97684.63;5180296;27;20096;-66
2022/12/23 03:53:44;;;;;;;39.85;15.18;;;;;;;1.68;100.00;97685.09;5180247;27;20057;-67
2022/12/23 03:56:16;;;;;;;41.15;16.20;;;;;;;1.66;100.00;97679.22;5180572;27;20085;-66
2022/12/23 03:58:48;;;;;;;47.63;17.40;;;;;;;1.69;100.00;97683.94;5179480;27;20167;-62
2022/12/23 04:01:21;;;;;;;34.95;15.73;;;;;;;1.61;100.00;97677.56;5179955;27;20414;-66
2022/12/23 04:03:55;;;;;;;60.72;15.95;;;;;;;1.63;100.00;97674.50;5180193;27;20138;-66
2022/12/23 04:06:26;;;;;;;51.47;19.08;;;;;;;1.70;100.00;97672.03;5180501;27;20062;-66
2022/12/23 04:08:53;;;;;;;42.92;17.85;;;;;;;1.65;100.00;97664.94;5180007;27;20050;-64
2022/12/23 04:11:20;;;;;;;49.80;20.08;;;;;;;1.70;100.00;97663.91;5180414;27;20065;-66
2022/12/23 04:13:47;;;;;;;42.80;18.05;;;;;;;1.60;100.00;97667.88;5180232;27;20050;-65
2022/12/23 04:16:14;;;;;;;54.65;18.25;;;;;;;1.83;100.00;97651.13;5180156;27;20379;-61
2022/12/23 04:18:40;;;;;;;42.70;17.63;;;;;;;1.79;100.00;97659.13;5180055;27;20097;-63
2022/12/23 04:21:07;;;;;;;51.53;20.88;;;;;;;1.72;100.00;97664.34;5179958;27;20385;-65
2022/12/23 04:23:33;;;;;;;49.63;19.90;;;;;;;1.72;100.00;97661.66;5180100;27;20042;-65
2022/12/23 04:25:59;;;;;;;55.60;20.73;;;;;;;1.72;100.00;97660.88;5179617;27;20411;-64
2022/12/23 04:28:25;;;;;;;57.72;21.35;;;;;;;1.86;100.00;97658.56;5179985;27;20132;-63
2022/12/23 04:30:52;;;;;;;59.47;21.52;;;;;;;1.88;100.00;97664.41;5179764;27;20051;-62
2022/12/23 04:33:18;;;;;;;58.33;21.52;;;;;;;2.10;100.00;97649.56;5179982;27;20383;-66
2022/12/23 04:35:44;;;;;;;74.25;21.20;;;;;;;1.77;100.00;97661.41;5179636;27;20146;-62
2022/12/23 04:38:11;;;;;;;50.42;19.23;;;;;;;1.71;100.00;97664.69;5179992;27;20086;-66
2022/12/23 04:40:37;;;;;;;54.83;19.77;;;;;;;1.68;100.00;97668.09;5179353;27;20061;-63
2022/12/23 04:43:03;;;;;;;52.45;20.85;;;;;;;1.83;100.00;97660.03;5179406;27;20149;-64
2022/12/23 04:45:31;;;;;;;61.80;21.70;;;;;;;1.86;100.00;97656.63;5179650;27;20065;-63
2022/12/23 04:47:57;;;;;;;52.53;20.27;;;;;;;1.86;100.00;97653.94;5179553;27;20050;-63
2022/12/23 04:50:23;;;;;;;54.47;20.27;;;;;;;1.76;100.00;97654.41;5179469;27;20053;-65
2022/12/23 04:52:49;;;;;;;54.55;20.98;;;;;;;1.79;100.00;97652.94;5179372;27;20102;-62
2022/12/23 04:55:16;;;;;;;56.83;21.17;;;;;;;1.86;100.00;97645.03;5179588;27;20053;-65
2022/12/23 04:57:43;;;;;;;55.22;22.38;;;;;;;2.20;100.00;97650.97;5179251;27;20436;-62
2022/12/23 05:00:10;;;;;;;59.83;21.30;;;;;;;2.04;100.00;97664.47;5179479;27;20138;-65
2022/12/23 05:02:36;;;;;;;60.03;21.92;;;;;;;2.04;100.00;97670.66;5179045;27;20092;-64
2022/12/23 05:05:03;;;;;;;56.45;21.05;;;;;;;2.07;100.00;97677.28;5179514;27;20046;-64
2022/12/23 05:07:29;;;;;;;56.75;23.10;;;;;;;2.27;100.00;97678.22;5179000;27;20425;-67
2022/12/23 05:10:00;;;;;;;65.32;21.52;;;;;;;1.91;100.00;97695.38;5179137;27;20142;-63
2022/12/23 05:12:27;;;;;;;61.80;24.70;;;;;;;2.15;100.00;97680.97;5178908;27;20057;-64
2022/12/23 05:14:54;;;;;;;65.28;25.48;;;;;;;2.10;100.00;97688.19;5178955;27;20046;-66
2022/12/23 05:17:20;;;;;;;70.85;25.88;;;;;;;1.97;100.00;97702.91;5178950;27;20069;-63
2022/12/23 05:19:46;;;;;;;65.50;25.98;;;;;;;2.03;100.00;97689.91;5178675;27;20438;-67
2022/12/23 05:22:13;;;;;;;79.35;29.25;;;;;;;2.08;100.00;97697.78;5158078;27;20057;-64
2022/12/23 05:24:39;;;;;;;93.22;35.00;;;;;;;2.33;100.00;97693.84;5158080;27;20051;-65
2022/12/23 05:27:06;;;;;;;90.43;35.05;;;;;;;2.22;100.00;97697.38;5158278;27;20115;-64
2022/12/23 05:29:32;;;;;;;99.63;35.58;;;;;;;2.03;100.00;97706.13;5157896;27;20046;-64
2022/12/23 05:31:59;;;;;;;86.68;34.03;;;;;;;2.34;100.00;97705.44;5158039;27;20050;-64
2022/12/23 05:34:25;;;;;;;95.68;30.70;;;;;;;2.40;100.00;97716.78;5157759;27;20051;-62
2022/12/23 05:36:51;;;;;;;93.22;32.60;;;;;;;2.06;100.00;97737.88;5158179;27;20137;-64
2022/12/23 05:39:17;;;;;;;81.38;30.92;;;;;;;2.15;100.00;97732.34;5157676;27;20086;-65
2022/12/23 05:41:44;;;;;;;93.93;34.83;;;;;;;2.15;100.00;97726.94;5157836;27;20134;-68
2022/12/23 05:44:11;;;;;;;92.40;35.92;;;;;;;2.20;100.00;97726.66;5157731;27;20392;-65
2022/12/23 05:46:37;;;;;;;83.50;31.60;;;;;;;2.11;100.00;97727.59;5157654;27;20078;-67
2022/12/23 05:49:04;;;;;;;86.38;32.22;;;;;;;2.21;100.00;97720.16;5157801;27;20407;-63
2022/12/23 05:51:30;;;;;;;71.43;31.83;;;;;;;2.17;100.00;97719.28;5157509;27;20137;-63
2022/12/23 05:53:56;;;;;;;80.38;29.13;;;;;;;2.36;100.00;97719.38;5157758;27;20088;-66
2022/12/23 05:56:22;;;;;;;78.03;29.08;;;;;;;2.32;100.00;97727.41;5157526;27;20061;-62
2022/12/23 05:58:48;;;;;;;71.90;29.60;;;;;;;2.27;100.00;97735.78;5157769;27;20141;-65
2022/12/23 06:01:15;;;;;;;76.43;30.30;;;;;;;2.41;100.00;97743.50;5157259;27;20051;-60
2022/12/23 06:03:42;;;;;;;65.28;28.85;;;;;;;2.10;100.00;97757.72;5157762;27;20046;-66
2022/12/23 06:06:08;;;;;;;59.13;25.52;;;;;;;2.16;100.00;97760.94;5157264;27;20106;-62
2022/12/23 06:08:34;;;;;;;57.97;25.23;;;;;;;2.17;100.00;97754.41;5157544;27;20431;-68
2022/12/23 06:11:03;;;;;;;51.85;23.60;;;;;;;2.01;100.00;97763.25;5157523;27;20324;-65
2022/12/23 06:13:30;;;;;;;54.63;24.92;;;;;;;2.19;100.00;97752.91;5157135;27;20047;-66
2022/12/23 06:15:56;;;;;;;62.80;25.58;;;;;;;2.34;100.00;97748.72;5157366;27;20141;-66
2022/12/23 06:18:22;;;;;;;54.60;23.63;;;;;;;2.06;100.00;97752.16;5157120;27;20061;-66
2022/12/23 06:20:49;;;;;;;56.30;24.58;;;;;;;2.18;100.00;97740.53;5157359;27;20050;-67
2022/12/23 06:23:15;;;;;;;63.30;26.88;;;;;;;2.22;100.00;97736.00;5159008;27;20057;-66
2022/12/23 06:25:42;;;;;;;52.80;24.58;;;;;;;2.07;100.00;97745.66;5161015;27;20046;-68
2022/12/23 06:28:08;;;;;;;56.15;26.95;;;;;;;2.23;100.00;97753.03;5160602;27;20062;-67
2022/12/23 06:30:34;;;;;;;54.50;25.40;;;;;;;2.08;100.00;97752.63;5161071;27;20050;-68
2022/12/23 06:33:00;;;;;;;54.22;25.95;;;;;;;2.10;100.00;97749.59;5160450;27;20046;-66
2022/12/23 06:35:26;;;;;;;59.75;26.95;;;;;;;2.13;100.00;97754.28;5160931;27;20054;-67
2022/12/23 06:37:53;;;;;;;51.53;24.42;;;;;;;2.16;100.00;97759.00;5160543;27;20051;-66
2022/12/23 06:40:20;;;;;;;76.30;33.65;;;;;;;2.26;100.00;97758.53;5160286;27;20094;-69
2022/12/23 06:42:46;;;;;;;77.15;35.25;;;;;;;2.25;100.00;97769.69;5160518;27;20043;-66
2022/12/23 06:45:12;;;;;;;94.55;39.78;;;;;;;2.30;100.00;97762.13;5160511;27;20051;-69
2022/12/23 06:47:38;;;;;;;82.38;34.05;;;;;;;2.17;100.00;97771.41;5160512;27;20319;-65
2022/12/23 06:50:06;;;;;;;88.20;35.90;;;;;;;2.40;100.00;97776.28;5160492;27;20130;-69
2022/12/23 06:52:32;;;;;;;89.32;34.63;;;;;;;2.27;100.00;97794.50;5160570;27;20392;-62
2022/12/23 06:54:59;;;;;;;85.35;35.53;;;;;;;2.42;100.00;97792.94;5160080;27;20042;-62
2022/12/23 06:57:25;;;;;;;71.22;32.22;;;;;;;2.32;100.00;97799.63;5160468;27;20172;-61
2022/12/23 06:59:51;;;;;;;76.88;31.10;;;;;;;2.30;100.00;97802.69;5160062;27;20046;-68
2022/12/23 07:02:17;;;;;;;66.82;30.55;;;;;;;2.30;100.00;97802.69;5160401;27;20335;-65
2022/12/23 07:04:44;;;;;;;74.65;34.17;;;;;;;2.37;100.00;97807.53;5160072;27;20047;-68
2022/12/23 07:07:10;;;;;;;86.07;34.10;;;;;;;2.59;100.00;97792.66;5160213;27;20346;-65
2022/12/23 07:09:36;;;;;;;94.25;40.33;;;;;;;2.22;100.00;97814.44;5160032;27;20099;-68
2022/12/23 07:12:03;;;;;;;78.18;34.95;;;;;;;2.20;100.00;97811.28;5159901;27;20046;-65
2022/12/23 07:14:29;;;;;;;53.63;26.05;;;;;;;2.46;100.00;97812.75;5159748;27;20078;-68
2022/12/23 07:16:56;;;;;;;65.57;27.20;;;;;;;2.57;100.00;97825.47;5159850;27;20093;-65
2022/12/23 07:19:22;;;;;;;62.58;25.05;;;;;;;2.45;100.00;97830.13;5160052;27;20065;-68
2022/12/23 07:21:48;;;;;;;71.82;30.52;;;;;;;2.83;100.00;97841.25;5159772;27;20145;-65
2022/12/23 07:24:15;;;;;;;66.25;27.83;;;;;;;2.60;100.00;97853.78;5160201;27;20076;-66
2022/12/23 07:26:42;;;;;;;68.05;27.95;;;;;;;2.62;100.00;97862.31;5159700;27;20106;-69
2022/12/23 07:29:09;;;;;;;52.30;23.70;;;;;;;2.46;100.00;97877.69;5160072;27;20435;-61
2022/12/23 07:31:35;;;;;;;50.72;23.23;;;;;;;2.42;100.00;97877.59;5159531;27;20421;-69
2022/12/23 07:34:01;;;;;;;52.35;22.67;;;;;;;2.43;100.00;97879.16;5159270;27;20043;-66
2022/12/23 07:36:27;;;;;;;46.95;20.48;;;;;;;2.43;100.00;97879.16;5159743;27;20046;-68
2022/12/23 07:38:53;;;;;;;46.45;19.58;;;;;;;2.64;100.00;97895.22;5159597;27;20055;-67
2022/12/23 07:41:20;;;;;;;41.67;17.73;;;;;;;2.30;100.00;97902.75;5159730;27;20050;-68
2022/12/23 07:43:46;;;;;;;31.17;15.70;;;;;;;2.30;100.00;97888.41;5159596;27;20340;-67
2022/12/23 07:46:13;;;;;;;34.88;17.17;;;;;;;2.26;100.00;97893.72;5159547;27;20054;-69
2022/12/23 07:48:40;;;;;;;36.05;15.68;;;;;;;2.27;100.00;97903.44;5159419;27;20096;-67
2022/12/23 07:51:06;;;;;;;32.50;15.43;;;;;;;2.33;100.00;97893.16;5159777;27;20051;-68
2022/12/23 07:53:33;;;;;;;39.72;16.58;;;;;;;2.58;100.00;97889.25;5159387;27;20074;-67
2022/12/23 07:55:59;;;;;;;32.72;16.02;;;;;;;2.83;100.00;97905.41;5159675;27;20119;-67
2022/12/23 07:58:25;;;;;;;39.30;18.25;;;;;;;2.59;100.00;97928.72;5159226;27;20473;-68
2022/12/23 08:00:58;;;;;;;33.75;15.95;;;;;;;2.63;100.00;97933.44;5159463;27;20083;-64
2022/12/23 08:03:25;;;;;;;35.28;17.08;;;;;;;2.96;100.00;97936.72;5158759;27;20337;-61
2022/12/23 08:05:59;;;;;;;38.95;16.27;;;;;;;3.12;100.00;97963.06;5158789;27;20137;-61
2022/12/23 08:08:25;;;;;;;37.08;16.23;;;;;;;2.73;100.00;97990.59;5158963;27;20087;-62
2022/12/23 08:10:56;;;;;;;35.28;13.98;;;;;;;3.13;100.00;97992.50;5158903;27;20420;-63
2022/12/23 08:13:22;;;;;;;38.80;17.13;;;;;;;2.89;100.00;98006.13;5159146;27;20130;-63
2022/12/23 08:15:53;;;;;;;39.85;17.60;;;;;;;3.11;100.00;98013.72;5158727;27;20046;-62
2022/12/23 08:18:19;;;;;;;33.53;15.32;;;;;;;3.21;100.00;98026.00;5159043;27;20055;-67
2022/12/23 08:20:53;;;;;;;36.83;14.48;;;;;;;3.02;100.00;98040.94;5158700;27;20088;-67
2022/12/23 08:23:19;;;;;;;31.02;15.25;;;;;;;3.26;100.00;98055.53;5159267;27;20066;-68
2022/12/23 08:25:45;;;;;;;35.75;15.05;;;;;;;3.06;100.00;98074.31;5158740;27;20051;-65
2022/12/23 08:28:11;;;;;;;32.72;15.57;;;;;;;2.81;100.00;98081.69;5158547;27;20061;-69
2022/12/23 08:30:38;;;;;;;32.47;14.85;;;;;;;2.91;100.00;98066.13;5158638;27;20121;-65
2022/12/23 08:33:04;;;;;;;33.75;15.13;;;;;;;3.10;100.00;98060.91;5158419;27;20051;-69
2022/12/23 08:35:30;;;;;;;29.70;14.73;;;;;;;3.15;100.00;98046.34;5158600;27;20082;-66
2022/12/23 08:37:57;;;;;;;37.92;16.35;;;;;;;3.24;100.00;98055.91;5158519;27;20051;-68
2022/12/23 08:40:23;;;;;;;31.58;15.68;;;;;;;3.23;100.00;98069.78;5158736;27;20065;-66
2022/12/23 08:42:50;;;;;;;33.47;15.65;;;;;;;3.26;100.00;98074.50;5158244;27;20057;-69
2022/12/23 08:45:16;;;;;;;32.80;14.45;;;;;;;3.19;100.00;98083.22;5158137;27;20130;-65
2022/12/23 08:47:42;;;;;;;33.30;14.27;;;;;;;3.25;100.00;98087.25;5158320;27;20137;-68
2022/12/23 08:50:10;;;;;;;32.22;14.05;;;;;;;3.01;100.00;98092.75;5158533;27;20395;-63
2022/12/23 08:52:37;;;;;;;30.70;14.05;;;;;;;3.29;100.00;98076.53;5157966;27;20119;-62
2022/12/23 08:55:04;;;;;;;40.42;14.88;;;;;;;2.95;100.00;98092.16;5157914;27;20043;-61
2022/12/23 08:57:30;;;;;;;40.00;15.68;;;;;;;3.14;100.00;98080.75;5157844;27;20047;-63
2022/12/23 08:59:56;;;;;;;36.60;16.08;;;;;;;3.40;100.00;98066.00;5157972;27;20081;-68
2022/12/23 09:02:23;;;;;;;32.10;14.90;;;;;;;3.35;100.00;98080.56;5158019;27;20060;-66
2022/12/23 09:04:49;;;;;;;30.95;15.00;;;;;;;3.23;100.00;98086.84;5157972;27;20043;-61
2022/12/23 09:07:15;;;;;;;33.30;15.10;;;;;;;3.40;100.00;98088.47;5158239;27;20091;-63
2022/12/23 09:09:41;;;;;;;36.72;16.88;;;;;;;3.31;100.00;98109.50;5158051;27;20094;-66
2022/12/23 09:12:08;;;;;;;36.30;14.70;;;;;;;3.18;100.00;98116.06;5158357;27;20543;-65
2022/12/23 09:14:35;;;;;;;31.92;12.90;;;;;;;3.01;100.00;98115.19;5158068;27;20331;-66
2022/12/23 09:17:01;;;;;;;31.40;14.35;;;;;;;3.10;100.00;98106.94;5158367;27;20042;-68
2022/12/23 09:19:27;;;;;;;32.05;15.05;;;;;;;2.91;100.00;98099.41;5158199;27;20373;-65
2022/12/23 09:21:53;;;;;;;35.55;12.85;;;;;;;2.97;100.00;98084.50;5158321;27;20475;-66
2022/12/23 09:24:19;;;;;;;30.70;14.15;;;;;;;3.28;100.00;98072.25;5158104;27;20331;-59
2022/12/23 09:26:46;;;;;;;28.17;13.15;;;;;;;3.42;100.00;98088.13;5157877;27;20057;-68
2022/12/23 09:29:13;;;;;;;29.60;13.25;;;;;;;2.87;100.00;98105.84;5157863;27;20149;-66
2022/12/23 09:31:39;;;;;;;31.70;13.57;;;;;;;3.21;100.00;98088.31;5157730;27;20055;-68
2022/12/23 09:34:05;;;;;;;29.65;14.63;;;;;;;3.43;100.00;98095.91;5157917;27;20086;-66
2022/12/23 09:36:31;;;;;;;44.15;15.18;;;;;;;3.12;100.00;98133.66;5157907;27;20490;-69
2022/12/23 09:38:58;;;;;;;37.83;13.30;;;;;;;3.50;100.00;98125.94;5157929;27;20055;-66
2022/12/23 09:41:52;;;;;;;31.77;15.32;;;;;;;4.38;100.00;98117.81;5157656;27;20046;-70
2022/12/23 09:44:53;;;;;;;27.58;12.10;;;;;;;4.68;100.00;98186.06;5158101;27;20201;-69
2022/12/23 09:47:25;;;;;;;27.92;13.05;;;;;;;4.25;100.00;98238.41;5153628;27;20439;-70
2022/12/23 09:49:56;;;;;;;27.60;13.25;;;;;;;4.17;100.00;98259.13;5157560;27;20134;-68
2022/12/23 09:52:26;;;;;;;31.17;13.75;;;;;;;4.02;100.00;98276.13;5158007;27;20051;-71
2022/12/23 09:54:54;;;;;;;32.42;13.15;;;;;;;3.95;100.00;98273.19;5157597;27;20046;-73
2022/12/23 09:57:23;;;;;;;34.50;12.75;;;;;;;4.12;100.00;98275.63;5159938;27;20412;-72
2022/12/23 10:00:04;;;;;;;30.33;13.23;;;;;;;3.95;100.00;98281.34;5160995;27;20099;-72
2022/12/23 10:02:41;;;;;;;32.50;14.32;;;;;;;3.77;100.00;98286.25;5160946;27;20048;-71
2022/12/23 10:05:20;;;;;;;36.88;14.68;;;;;;;3.94;100.00;98280.56;5159183;27;20051;-70
2022/12/23 10:07:52;;;;;;;33.67;14.75;;;;;;;4.00;100.00;98289.25;5161179;27;20085;-72
2022/12/23 10:10:35;;;;;;;26.85;12.95;;;;;;;3.87;100.00;98287.69;5161133;27;20043;-73
2022/12/23 10:13:05;;;;;;;30.00;13.55;;;;;;;3.74;100.00;98285.00;5161129;27;20131;-72
2022/12/23 10:15:36;;;;;;;32.05;14.23;;;;;;;3.92;100.00;98287.44;5161034;27;20047;-74
2022/12/23 10:18:11;;;;;;;30.88;15.20;;;;;;;3.96;100.00;98289.13;5160791;27;20043;-72
2022/12/23 10:20:42;;;;;;;35.05;15.05;;;;;;;3.95;100.00;98286.75;5140095;28;20065;-72
2022/12/23 10:23:16;;;;;;;34.40;14.18;;;;;;;3.80;100.00;98290.16;5140070;28;20058;-75
2022/12/23 10:25:49;;;;;;;37.10;15.00;;;;;;;3.89;100.00;98290.84;5139966;28;20058;-75
2022/12/23 10:28:16;;;;;;;33.42;14.93;;;;;;;3.73;100.00;98288.84;5140102;28;20047;-70
2022/12/23 10:30:46;;;;;;;38.45;14.75;;;;;;;3.61;100.00;98290.78;5139681;28;20062;-63
2022/12/23 10:33:21;;;;;;;39.30;16.23;;;;;;;3.70;100.00;98277.91;5139823;28;20089;-63
2022/12/23 10:35:57;;;;;;;43.50;16.25;;;;;;;3.81;100.00;98276.28;5139392;28;20062;-62
2022/12/23 10:38:39;;;;;;;42.22;16.15;;;;;;;3.84;100.00;98270.19;5139889;28;20108;-63
2022/12/23 10:41:13;;;;;;;39.42;15.95;;;;;;;3.69;100.00;98282.50;5139493;28;20134;-62
2022/12/23 10:43:53;;;;;;;37.17;16.23;;;;;;;3.77;100.00;98262.63;5139470;28;20138;-65
2022/12/23 10:46:28;;;;;;;36.80;15.13;;;;;;;3.62;100.00;98254.41;5139187;28;20051;-65
2022/12/23 10:49:05;;;;;;;40.97;15.80;;;;;;;3.77;100.00;98268.03;5139424;28;20047;-63
2022/12/23 10:51:40;;;;;;;46.25;16.30;;;;;;;3.80;100.00;98266.59;5145185;27;20354;-63
2022/12/23 10:54:11;;;;;;;44.80;17.80;;;;;;;3.86;100.00;98276.03;5160049;27;20051;-62
2022/12/23 10:56:37;;;;;;;40.35;17.75;;;;;;;3.82;100.00;98280.56;5160222;27;20080;-63
2022/12/23 10:59:06;;;;;;;39.03;17.13;;;;;;;3.80;100.00;98273.91;5160127;27;20419;-63
2022/12/23 11:01:33;;;;;;;46.92;19.00;;;;;;;3.86;100.00;98275.25;5159768;27;20054;-65
2022/12/23 11:04:06;;;;;;;39.03;15.68;;;;;;;3.79;100.00;98267.69;5160026;27;20482;-65
2022/12/23 11:06:38;;;;;;;46.13;16.37;;;;;;;3.89;100.00;98261.78;5159967;27;20055;-65
2022/12/23 11:09:05;;;;;;;41.65;15.43;;;;;;;3.91;100.00;98269.59;5159629;27;20383;-65
2022/12/23 11:11:55;;;;;;;38.25;15.73;;;;;;;3.99;100.00;98268.66;5159601;27;20141;-64
2022/12/23 11:14:36;;;;;;;46.47;17.30;;;;;;;4.07;100.00;98275.13;5160152;27;20120;-66
2022/12/23 11:17:04;;;;;;;40.65;14.95;;;;;;;4.08;100.00;98282.88;5159827;27;20058;-63
2022/12/23 11:19:32;;;;;;;41.53;17.67;;;;;;;3.92;100.00;98282.81;5159437;27;20410;-66
2022/12/23 11:21:59;;;;;;;36.20;17.10;;;;;;;3.72;100.00;98284.53;5159828;27;20081;-65
2022/12/23 11:24:27;;;;;;;41.50;15.75;;;;;;;4.03;100.00;98282.34;5159542;27;20048;-65
2022/12/23 11:27:01;;;;;;;47.95;16.85;;;;;;;4.04;100.00;98278.50;5159835;27;20047;-62
2022/12/23 11:29:31;;;;;;;38.22;16.05;;;;;;;4.07;100.00;98277.81;5159360;27;20050;-63
2022/12/23 11:31:57;;;;;;;42.20;16.27;;;;;;;3.92;100.00;98282.03;5159506;27;20055;-66
2022/12/23 11:34:26;;;;;;;35.28;15.30;;;;;;;4.06;100.00;98287.06;5159298;27;20483;-63
2022/12/23 11:36:56;;;;;;;47.92;17.02;;;;;;;4.06;100.00;98284.34;5159707;27;20047;-63
2022/12/23 11:39:28;;;;;;;46.15;16.42;;;;;;;3.96;100.00;98285.63;5159455;27;20106;-64
2022/12/23 11:42:11;;;;;;;36.72;15.43;;;;;;;3.99;100.00;98290.38;5159478;27;20050;-62
2022/12/23 11:44:42;;;;;;;39.35;14.77;;;;;;;4.07;100.00;98283.25;5159400;27;20086;-65
2022/12/23 11:47:24;;;;;;;34.65;15.20;;;;;;;4.08;100.00;98293.75;5159303;27;20129;-63
2022/12/23 11:49:52;;;;;;;32.15;14.07;;;;;;;3.80;100.00;98299.13;5159447;27;20074;-62
2022/12/23 11:52:22;;;;;;;30.67;14.18;;;;;;;3.77;100.00;98308.72;5159074;27;20054;-64
2022/12/23 11:54:54;;;;;;;30.70;13.82;;;;;;;4.02;100.00;98300.53;5158993;27;20058;-63